createdAt,value
2023-02-23T00:01:29.396Z,8.07
2023-02-23T00:03:59.567Z,6.63
2023-02-23T00:06:33.415Z,8.00
2023-02-23T00:09:02.260Z,7.90
2023-02-23T00:11:31.279Z,7.13
2023-02-23T00:14:01.551Z,7.87
2023-02-23T00:16:32.873Z,7.20
2023-02-23T00:19:02.904Z,8.37
2023-02-23T00:21:35.514Z,7.73
2023-02-23T00:24:06.625Z,8.10
2023-02-23T00:26:36.806Z,8.20
2023-02-23T00:29:08.120Z,7.53
2023-02-23T00:31:38.913Z,8.00
2023-02-23T00:34:08.198Z,7.23
2023-02-23T00:36:39.458Z,7.40
2023-02-23T00:39:29.824Z,8.50
2023-02-23T00:42:03.461Z,9.13
2023-02-23T00:44:34.079Z,8.50
2023-02-23T00:47:03.285Z,9.67
2023-02-23T00:49:31.958Z,8.97
2023-02-23T00:52:02.408Z,9.20
2023-02-23T00:54:31.132Z,7.97
2023-02-23T00:57:00.198Z,8.30
2023-02-23T00:59:31.041Z,8.07
2023-02-23T01:01:59.688Z,9.07
2023-02-23T01:04:30.263Z,9.87
2023-02-23T01:06:59.001Z,8.00
2023-02-23T01:09:29.625Z,10.40
2023-02-23T01:12:01.778Z,9.37
2023-02-23T01:14:31.525Z,8.33
2023-02-23T01:17:00.500Z,9.07
2023-02-23T01:19:29.233Z,7.93
2023-02-23T01:21:57.843Z,9.40
2023-02-23T01:24:26.841Z,9.33
2023-02-23T01:26:56.841Z,8.93
2023-02-23T01:29:26.127Z,9.70
2023-02-23T01:32:15.495Z,9.90
2023-02-23T01:34:44.297Z,11.80
2023-02-23T01:37:15.968Z,10.77
2023-02-23T01:39:47.666Z,12.37
2023-02-23T01:42:17.576Z,11.50
2023-02-23T01:45:22.366Z,11.03
2023-02-23T01:47:51.629Z,13.13
2023-02-23T01:50:30.557Z,11.13
2023-02-23T01:52:59.635Z,11.23
2023-02-23T01:55:30.157Z,11.57
2023-02-23T01:58:05.837Z,11.83
2023-02-23T02:00:47.488Z,11.30
2023-02-23T02:03:22.900Z,11.83
2023-02-23T02:05:52.649Z,10.53
2023-02-23T02:08:24.229Z,12.07
2023-02-23T02:10:56.268Z,13.27
2023-02-23T02:13:29.630Z,12.20
2023-02-23T02:16:20.607Z,13.10
2023-02-23T02:19:06.238Z,12.17
2023-02-23T02:22:20.145Z,10.67
2023-02-23T02:25:27.577Z,11.10
2023-02-23T02:28:18.287Z,13.10
2023-02-23T02:31:11.960Z,12.20
2023-02-23T02:34:12.126Z,13.27
2023-02-23T02:37:09.856Z,10.20
2023-02-23T02:39:46.903Z,11.70
2023-02-23T02:42:23.126Z,11.90
2023-02-23T02:44:56.447Z,12.00
2023-02-23T02:47:31.813Z,11.33
2023-02-23T02:50:06.946Z,11.23
2023-02-23T02:52:42.382Z,14.20
2023-02-23T02:55:14.612Z,13.87
2023-02-23T02:57:47.085Z,14.97
2023-02-23T03:00:36.900Z,13.03
2023-02-23T03:03:23.052Z,12.97
2023-02-23T03:06:10.707Z,13.30
2023-02-23T03:09:02.757Z,13.97
2023-02-23T03:11:54.131Z,13.37
2023-02-23T03:15:08.213Z,14.80
2023-02-23T03:18:02.385Z,14.47
2023-02-23T03:20:59.441Z,12.50
2023-02-23T03:23:49.434Z,13.27
2023-02-23T03:26:40.940Z,15.50
2023-02-23T03:29:31.973Z,12.37
2023-02-23T03:32:30.330Z,13.80
2023-02-23T03:35:20.883Z,13.77
2023-02-23T03:38:12.716Z,12.90
2023-02-23T03:41:01.298Z,15.30
2023-02-23T03:43:52.654Z,13.67
2023-02-23T03:46:39.538Z,16.80
2023-02-23T03:49:28.682Z,15.43
2023-02-23T03:52:18.969Z,16.40
2023-02-23T03:55:07.738Z,14.10
2023-02-23T03:57:54.670Z,14.90
2023-02-23T04:00:46.440Z,14.10
2023-02-23T04:03:35.525Z,12.60
2023-02-23T04:06:22.791Z,12.70
2023-02-23T04:09:10.140Z,13.90
2023-02-23T04:12:04.691Z,13.07
2023-02-23T04:14:37.033Z,13.70
2023-02-23T04:17:07.078Z,13.93
2023-02-23T04:19:35.698Z,13.60
2023-02-23T04:22:04.254Z,14.40
2023-02-23T04:24:33.099Z,15.13
2023-02-23T04:27:03.131Z,13.83
2023-02-23T04:29:32.039Z,12.90
2023-02-23T04:32:00.657Z,17.37
2023-02-23T04:34:30.570Z,17.60
2023-02-23T04:36:59.243Z,17.30
2023-02-23T04:39:27.859Z,15.80
2023-02-23T04:41:56.346Z,13.90
2023-02-23T04:44:25.357Z,14.33
2023-02-23T04:46:53.876Z,14.40
2023-02-23T04:49:22.214Z,16.20
2023-02-23T04:51:52.403Z,14.37
2023-02-23T04:54:21.094Z,13.80
2023-02-23T04:56:49.643Z,14.93
2023-02-23T04:59:18.622Z,14.37
2023-02-23T05:01:47.648Z,13.37
2023-02-23T05:04:16.599Z,13.97
2023-02-23T05:06:45.259Z,15.60
2023-02-23T05:09:15.523Z,15.00
2023-02-23T05:11:44.150Z,14.00
2023-02-23T05:14:12.813Z,14.83
2023-02-23T05:16:41.451Z,15.07
2023-02-23T05:19:10.280Z,15.00
2023-02-23T05:21:38.846Z,15.13
2023-02-23T05:24:07.941Z,16.77
2023-02-23T05:26:38.193Z,18.10
2023-02-23T05:29:07.549Z,15.90
2023-02-23T05:31:36.262Z,17.40
2023-02-23T05:34:05.465Z,16.70
2023-02-23T05:36:33.743Z,16.67
2023-02-23T05:39:02.445Z,15.20
2023-02-23T05:41:31.183Z,18.37
2023-02-23T05:44:01.459Z,22.87
2023-02-23T05:46:30.877Z,24.13
2023-02-23T05:49:01.324Z,21.63
2023-02-23T05:51:48.256Z,19.53
2023-02-23T05:54:16.560Z,20.07
2023-02-23T05:57:44.545Z,20.77
2023-02-23T06:00:15.474Z,17.30
2023-02-23T06:02:44.157Z,16.53
2023-02-23T06:05:14.363Z,17.53
2023-02-23T06:07:47.090Z,15.27
2023-02-23T06:10:18.700Z,16.97
2023-02-23T06:12:50.260Z,15.40
2023-02-23T06:15:20.828Z,15.47
2023-02-23T06:17:49.398Z,15.63
2023-02-23T06:20:20.674Z,15.33
2023-02-23T06:22:49.414Z,16.87
2023-02-23T06:25:18.549Z,14.33
2023-02-23T06:27:49.936Z,15.37
2023-02-23T06:30:20.864Z,14.83
2023-02-23T06:32:49.500Z,15.90
2023-02-23T06:35:18.459Z,15.43
2023-02-23T06:37:47.024Z,14.70
2023-02-23T06:40:15.895Z,14.57
2023-02-23T06:42:44.793Z,14.70
2023-02-23T06:45:15.496Z,15.20
2023-02-23T06:47:46.259Z,15.70
2023-02-23T06:50:14.736Z,17.10
2023-02-23T06:52:44.234Z,14.27
2023-02-23T06:55:13.870Z,16.40
2023-02-23T06:57:42.814Z,13.77
2023-02-23T07:00:12.850Z,15.00
2023-02-23T07:02:41.627Z,13.93
2023-02-23T07:05:12.174Z,16.10
2023-02-23T07:07:40.980Z,13.50
2023-02-23T07:10:10.781Z,13.57
2023-02-23T07:12:39.547Z,12.83
2023-02-23T07:15:09.395Z,13.87
2023-02-23T07:17:38.352Z,13.40
2023-02-23T07:20:07.578Z,13.00
2023-02-23T07:22:40.117Z,13.90
2023-02-23T07:25:11.915Z,13.67
2023-02-23T07:27:42.462Z,16.30
2023-02-23T07:30:12.830Z,17.20
2023-02-23T07:32:41.298Z,16.10
2023-02-23T07:35:10.601Z,19.13
2023-02-23T07:37:40.917Z,18.00
2023-02-23T07:40:11.192Z,17.03
2023-02-23T07:42:40.119Z,15.93
2023-02-23T07:45:33.487Z,15.30
2023-02-23T07:48:02.098Z,17.10
2023-02-23T07:50:30.603Z,16.80
2023-02-23T07:53:01.480Z,17.13
2023-02-23T07:55:32.620Z,16.03
2023-02-23T07:58:01.801Z,18.80
2023-02-23T08:00:30.399Z,19.00
2023-02-23T08:03:01.672Z,17.53
2023-02-23T08:05:30.197Z,16.97
2023-02-23T08:08:06.052Z,19.20
2023-02-23T08:10:34.671Z,17.80
2023-02-23T08:13:05.747Z,19.00
2023-02-23T08:15:38.424Z,18.50
2023-02-23T08:18:07.902Z,15.60
2023-02-23T08:21:30.654Z,17.17
2023-02-23T08:24:02.832Z,21.87
2023-02-23T08:26:33.238Z,23.10
2023-02-23T08:29:01.990Z,19.37
2023-02-23T08:31:30.567Z,22.70
2023-02-23T08:34:01.603Z,19.30
2023-02-23T08:36:31.458Z,20.53
2023-02-23T08:39:02.515Z,20.70
2023-02-23T08:41:32.509Z,16.80
2023-02-23T08:44:00.993Z,17.60
2023-02-23T08:46:29.658Z,17.80
2023-02-23T08:48:58.760Z,17.13
2023-02-23T08:51:29.934Z,16.30
2023-02-23T08:53:58.605Z,18.73
2023-02-23T08:56:28.706Z,17.20
2023-02-23T08:58:59.948Z,17.33
2023-02-23T09:01:28.910Z,19.03
2023-02-23T09:03:58.148Z,16.40
2023-02-23T09:06:31.065Z,17.80
2023-02-23T09:09:00.032Z,19.23
2023-02-23T09:11:32.944Z,17.43
2023-02-23T09:14:01.730Z,17.63
2023-02-23T09:16:30.269Z,16.97
2023-02-23T09:19:01.625Z,17.27
2023-02-23T09:21:34.500Z,18.07
2023-02-23T09:24:03.058Z,17.87
2023-02-23T09:26:33.529Z,18.07
2023-02-23T09:29:02.674Z,16.40
2023-02-23T09:31:31.035Z,26.13
2023-02-23T09:34:01.910Z,18.57
2023-02-23T09:36:33.387Z,17.60
2023-02-23T09:39:03.389Z,18.97
2023-02-23T09:41:59.729Z,18.57
2023-02-23T09:44:36.092Z,17.93
2023-02-23T09:47:14.023Z,17.60
2023-02-23T09:49:44.110Z,19.00
2023-02-23T09:52:20.111Z,19.63
2023-02-23T09:54:48.911Z,17.57
2023-02-23T09:57:21.754Z,16.27
2023-02-23T10:00:03.001Z,17.13
2023-02-23T10:02:36.301Z,18.97
2023-02-23T10:05:08.526Z,19.43
2023-02-23T10:07:44.792Z,19.33
2023-02-23T10:10:23.931Z,20.17
2023-02-23T10:13:02.008Z,17.30
2023-02-23T10:15:38.465Z,18.93
2023-02-23T10:18:16.612Z,18.33
2023-02-23T10:20:51.155Z,18.87
2023-02-23T10:23:29.664Z,17.53
2023-02-23T10:26:19.010Z,18.27
2023-02-23T10:28:49.542Z,15.90
2023-02-23T10:31:28.985Z,16.10
2023-02-23T10:33:59.575Z,16.70
2023-02-23T10:36:38.791Z,17.60
2023-02-23T10:39:08.679Z,16.07
2023-02-23T10:41:38.762Z,16.90
2023-02-23T10:47:14.664Z,17.43
2023-02-23T10:52:59.530Z,16.97
2023-02-23T10:55:32.496Z,18.50
2023-02-23T10:58:07.816Z,18.70
2023-02-23T11:00:40.352Z,17.67
2023-02-23T11:03:20.110Z,18.67
2023-02-23T11:05:53.197Z,20.37
2023-02-23T11:08:30.664Z,20.77
2023-02-23T11:11:09.181Z,20.27
2023-02-23T11:13:40.855Z,20.87
2023-02-23T11:16:13.590Z,21.87
2023-02-23T11:18:44.403Z,20.87
2023-02-23T11:21:15.305Z,22.50
2023-02-23T11:23:44.717Z,23.47
2023-02-23T11:26:32.958Z,22.37
2023-02-23T11:29:06.030Z,23.07
2023-02-23T11:31:45.084Z,21.97
2023-02-23T11:34:23.276Z,23.13
2023-02-23T11:37:01.646Z,20.23
2023-02-23T11:39:30.391Z,21.60
2023-02-23T11:42:33.734Z,20.70
2023-02-23T11:45:07.296Z,20.03
2023-02-23T11:48:09.158Z,22.87
2023-02-23T11:50:38.696Z,23.03
2023-02-23T11:53:13.252Z,26.10
2023-02-23T11:55:48.551Z,20.10
2023-02-23T11:58:24.879Z,22.37
2023-02-23T12:00:58.553Z,24.20
2023-02-23T12:03:30.462Z,20.60
2023-02-23T12:06:02.639Z,23.27
2023-02-23T12:08:39.440Z,21.63
2023-02-23T12:11:12.846Z,23.37
2023-02-23T12:13:44.414Z,23.50
2023-02-23T12:16:19.429Z,22.80
2023-02-23T12:18:54.568Z,20.73
2023-02-23T12:21:33.005Z,19.93
2023-02-23T12:24:12.003Z,20.90
2023-02-23T12:26:47.807Z,23.37
2023-02-23T12:29:21.922Z,21.90
2023-02-23T12:31:53.880Z,19.47
2023-02-23T12:34:38.952Z,20.63
2023-02-23T12:37:23.052Z,20.77
2023-02-23T12:39:55.173Z,21.93
2023-02-23T12:42:28.167Z,20.20
2023-02-23T12:45:03.105Z,20.40
2023-02-23T12:47:41.110Z,22.30
2023-02-23T12:50:14.308Z,18.90
2023-02-23T12:52:48.324Z,22.73
2023-02-23T12:55:26.269Z,23.10
2023-02-23T12:57:59.906Z,19.17
2023-02-23T13:00:44.100Z,23.47
2023-02-23T13:03:33.206Z,24.10
2023-02-23T13:06:07.720Z,20.03
2023-02-23T13:08:48.750Z,24.93
2023-02-23T13:11:29.838Z,20.60
2023-02-23T13:14:01.659Z,20.40
2023-02-23T13:16:44.694Z,19.50
2023-02-23T13:19:19.707Z,20.30
2023-02-23T13:21:55.366Z,22.87
2023-02-23T13:24:26.767Z,24.37
2023-02-23T13:27:00.972Z,22.67
2023-02-23T13:29:36.076Z,22.20
2023-02-23T13:32:06.879Z,19.40
2023-02-23T13:34:41.752Z,22.23
2023-02-23T13:37:16.202Z,21.80
2023-02-23T13:40:11.462Z,21.23
2023-02-23T13:46:56.726Z,19.77
2023-02-23T13:49:36.172Z,20.27
2023-02-23T13:52:19.083Z,19.30
2023-02-23T13:54:56.551Z,16.90
2023-02-23T13:57:26.661Z,19.83
2023-02-23T13:59:55.366Z,19.63
2023-02-23T14:02:35.670Z,20.63
2023-02-23T14:05:06.990Z,20.47
2023-02-23T14:07:43.082Z,20.57
2023-02-23T14:10:21.235Z,22.87
2023-02-23T14:13:08.348Z,24.47
2023-02-23T14:15:46.346Z,20.73
2023-02-23T14:18:32.193Z,19.60
2023-02-23T14:21:07.862Z,20.80
2023-02-23T14:23:52.874Z,25.50
2023-02-23T14:26:44.308Z,21.20
2023-02-23T14:29:24.569Z,24.90
2023-02-23T14:32:06.117Z,21.47
2023-02-23T14:34:49.212Z,27.73
2023-02-23T14:37:26.540Z,25.00
2023-02-23T14:40:01.655Z,26.20
2023-02-23T14:42:31.006Z,28.33
2023-02-23T14:45:05.658Z,26.63
2023-02-23T14:47:43.430Z,25.60
2023-02-23T14:50:19.227Z,25.17
2023-02-23T14:54:05.143Z,28.63
2023-02-23T14:56:44.006Z,26.03
2023-02-23T14:59:21.140Z,26.70
2023-02-23T15:01:50.988Z,24.97
2023-02-23T15:04:22.826Z,26.87
2023-02-23T15:06:54.886Z,24.80
2023-02-23T15:09:32.333Z,22.80
2023-02-23T15:12:08.450Z,23.73
2023-02-23T15:14:39.286Z,23.80
2023-02-23T15:17:08.983Z,29.53
2023-02-23T15:19:39.514Z,27.90
2023-02-23T15:22:08.113Z,25.00
2023-02-23T15:24:43.925Z,23.80
2023-02-23T15:27:23.033Z,25.70
2023-02-23T15:29:51.734Z,25.67
2023-02-23T15:32:22.246Z,24.50
2023-02-23T15:34:50.852Z,24.03
2023-02-23T15:37:28.743Z,29.87
2023-02-23T15:40:00.219Z,25.93
2023-02-23T15:42:37.069Z,25.37
2023-02-23T15:45:16.660Z,25.43
2023-02-23T15:47:46.022Z,28.60
2023-02-23T15:50:24.744Z,27.73
2023-02-23T15:53:02.745Z,28.27
2023-02-23T15:56:32.422Z,26.90
2023-02-23T15:59:05.147Z,27.20
2023-02-23T16:01:34.437Z,25.07
2023-02-23T16:04:08.237Z,23.43
2023-02-23T16:06:39.873Z,25.27
2023-02-23T16:09:29.397Z,24.80
2023-02-23T16:12:02.438Z,27.70
2023-02-23T16:14:34.874Z,23.83
2023-02-23T16:17:11.401Z,24.60
2023-02-23T16:19:42.021Z,26.60
2023-02-23T16:22:28.456Z,26.47
2023-02-23T16:25:05.297Z,26.00
2023-02-23T16:27:34.384Z,26.43
2023-02-23T16:30:18.903Z,24.60
2023-02-23T16:32:47.665Z,25.13
2023-02-23T16:35:18.960Z,25.60
2023-02-23T16:38:03.485Z,25.23
2023-02-23T16:40:32.079Z,25.70
2023-02-23T16:43:00.578Z,23.33
2023-02-23T16:45:33.855Z,27.33
2023-02-23T16:48:11.721Z,26.67
2023-02-23T16:50:41.804Z,28.03
2023-02-23T16:53:12.091Z,25.47
2023-02-23T16:55:42.773Z,24.97
2023-02-23T16:58:12.813Z,38.93
2023-02-23T17:00:50.212Z,28.80
2023-02-23T17:03:23.284Z,38.33
2023-02-23T17:05:52.669Z,28.73
2023-02-23T17:08:21.193Z,26.07
2023-02-23T17:10:50.939Z,24.70
2023-02-23T17:13:22.137Z,30.40
2023-02-23T17:15:56.612Z,30.60
2023-02-23T17:18:28.757Z,30.73
2023-02-23T17:20:58.951Z,30.47
2023-02-23T17:23:30.298Z,30.93
2023-02-23T17:25:59.287Z,26.20
2023-02-23T17:28:27.794Z,27.20
2023-02-23T17:30:58.069Z,26.30
2023-02-23T17:33:33.830Z,25.73
2023-02-23T17:36:03.088Z,19.60
2023-02-23T17:38:34.994Z,20.37
2023-02-23T17:41:04.687Z,16.70
2023-02-23T17:43:35.538Z,17.53
2023-02-23T17:46:06.190Z,15.50
2023-02-23T17:48:35.866Z,17.00
2023-02-23T17:51:07.127Z,18.37
2023-02-23T17:53:36.116Z,16.53
2023-02-23T17:56:05.113Z,16.97
2023-02-23T17:58:34.135Z,15.47
2023-02-23T18:01:07.261Z,17.30
2023-02-23T18:03:38.079Z,16.97
2023-02-23T18:06:08.504Z,17.23
2023-02-23T18:08:37.295Z,16.37
2023-02-23T18:11:08.922Z,14.77
2023-02-23T18:13:38.082Z,17.80
2023-02-23T18:16:10.864Z,14.77
2023-02-23T18:18:40.779Z,16.83
2023-02-23T18:21:13.381Z,14.87
2023-02-23T18:23:48.100Z,15.63
2023-02-23T18:26:18.468Z,16.33
2023-02-23T18:28:50.229Z,17.20
2023-02-23T18:31:23.902Z,15.83
2023-02-23T18:33:53.856Z,15.33
2023-02-23T18:36:24.608Z,15.70
2023-02-23T18:38:54.687Z,15.33
2023-02-23T18:41:23.710Z,14.60
2023-02-23T18:43:52.343Z,18.90
2023-02-23T18:46:25.919Z,19.00
2023-02-23T18:48:54.754Z,17.93
2023-02-23T18:51:23.743Z,16.40
2023-02-23T18:53:53.121Z,17.20
2023-02-23T18:56:25.800Z,17.13
2023-02-23T18:58:56.088Z,17.40
2023-02-23T19:01:28.067Z,17.80
2023-02-23T19:04:01.404Z,16.00
2023-02-23T19:09:14.689Z,18.60
2023-02-23T19:11:44.278Z,17.60
2023-02-23T19:14:16.185Z,18.63
2023-02-23T19:16:46.984Z,21.40
2023-02-23T19:19:21.433Z,22.00
2023-02-23T19:21:50.105Z,23.17
2023-02-23T19:24:20.878Z,23.30
2023-02-23T19:26:49.523Z,21.50
2023-02-23T19:29:18.849Z,19.87
2023-02-23T19:31:50.965Z,17.40
2023-02-23T19:34:20.117Z,17.07
2023-02-23T19:36:48.580Z,18.53
2023-02-23T19:39:17.287Z,16.07
2023-02-23T19:41:47.309Z,16.07
2023-02-23T19:44:16.865Z,17.33
2023-02-23T19:46:46.710Z,18.30
2023-02-23T19:49:17.664Z,15.77
2023-02-23T19:51:47.947Z,15.20
2023-02-23T19:54:16.714Z,15.13
2023-02-23T19:56:45.998Z,15.53
2023-02-23T19:59:17.913Z,15.97
2023-02-23T20:01:51.711Z,14.67
2023-02-23T20:04:22.720Z,13.80
2023-02-23T20:06:52.691Z,14.23
2023-02-23T20:09:27.119Z,15.20
2023-02-23T20:12:01.821Z,14.97
2023-02-23T20:14:30.850Z,15.60
2023-02-23T20:16:59.800Z,13.90
2023-02-23T20:19:34.228Z,14.03
2023-02-23T20:22:03.559Z,14.93
2023-02-23T20:24:34.634Z,16.53
2023-02-23T20:27:16.957Z,13.90
2023-02-23T20:29:45.626Z,14.90
2023-02-23T20:32:14.298Z,24.10
2023-02-23T20:34:45.802Z,23.57
2023-02-23T20:37:14.883Z,18.83
2023-02-23T20:39:47.502Z,16.87
2023-02-23T20:42:16.245Z,18.60
2023-02-23T20:44:50.813Z,22.03
2023-02-23T20:47:19.710Z,21.40
2023-02-23T20:49:49.810Z,19.00
2023-02-23T20:52:18.144Z,21.60
2023-02-23T20:54:52.283Z,17.90
2023-02-23T20:57:21.148Z,17.10
2023-02-23T20:59:50.066Z,20.33
2023-02-23T21:02:19.235Z,18.50
2023-02-23T21:04:49.579Z,15.97
2023-02-23T21:07:18.429Z,15.30
2023-02-23T21:09:47.358Z,17.97
2023-02-23T21:12:16.637Z,17.33
2023-02-23T21:14:45.417Z,18.37
2023-02-23T21:17:14.116Z,17.23
2023-02-23T21:19:46.804Z,17.70
2023-02-23T21:22:17.164Z,14.80
2023-02-23T21:24:46.012Z,15.80
2023-02-23T21:27:16.870Z,15.90
2023-02-23T21:29:46.249Z,16.20
2023-02-23T21:32:18.902Z,14.10
2023-02-23T21:34:48.912Z,16.13
2023-02-23T21:37:19.476Z,14.53
2023-02-23T21:39:50.709Z,13.73
2023-02-23T21:42:23.101Z,15.33
2023-02-23T21:44:53.237Z,15.67
2023-02-23T21:47:22.071Z,16.50
2023-02-23T21:49:50.851Z,17.90
2023-02-23T21:52:24.380Z,15.07
2023-02-23T21:54:54.139Z,14.80
2023-02-23T21:57:24.685Z,14.60
2023-02-23T21:59:53.971Z,15.13
2023-02-23T22:02:22.453Z,14.93
2023-02-23T22:04:52.175Z,16.30
2023-02-23T22:07:22.753Z,17.60
2023-02-23T22:09:51.535Z,16.50
2023-02-23T22:12:20.263Z,15.47
2023-02-23T22:14:49.218Z,15.73
2023-02-23T22:18:15.735Z,15.47
2023-02-23T22:20:51.319Z,15.77
2023-02-23T22:23:21.445Z,16.73
2023-02-23T22:25:50.038Z,16.63
2023-02-23T22:28:18.939Z,17.70
2023-02-23T22:30:51.954Z,15.27
2023-02-23T22:33:21.385Z,18.20
2023-02-23T22:35:50.600Z,15.67
2023-02-23T22:38:21.126Z,15.37
2023-02-23T22:40:57.302Z,16.90
2023-02-23T22:43:27.416Z,15.07
2023-02-23T22:45:59.681Z,17.17
2023-02-23T22:48:28.677Z,16.60
2023-02-23T22:51:01.683Z,18.33
2023-02-23T22:53:32.425Z,16.77
2023-02-23T22:56:01.162Z,14.83
2023-02-23T22:58:31.789Z,17.00
2023-02-23T23:01:04.372Z,17.67
2023-02-23T23:03:35.976Z,16.90
2023-02-23T23:06:05.895Z,16.73
2023-02-23T23:08:39.011Z,15.80
2023-02-23T23:11:10.322Z,17.83
2023-02-23T23:13:44.790Z,16.57
2023-02-23T23:16:25.553Z,18.87
2023-02-23T23:19:04.754Z,15.10
2023-02-23T23:21:35.132Z,17.70
2023-02-23T23:24:20.160Z,15.80
2023-02-23T23:26:52.508Z,18.17
2023-02-23T23:29:25.924Z,16.57
2023-02-23T23:31:59.543Z,17.57
2023-02-23T23:34:28.121Z,18.13
2023-02-23T23:36:57.508Z,15.50
2023-02-23T23:39:27.794Z,16.43
2023-02-23T23:41:56.903Z,17.40
2023-02-23T23:44:29.627Z,17.10
2023-02-23T23:46:59.045Z,17.20
2023-02-23T23:49:27.824Z,16.83
2023-02-23T23:51:57.745Z,15.60
2023-02-23T23:54:31.060Z,17.30
2023-02-23T23:57:01.640Z,17.20
2023-02-23T23:59:31.894Z,16.40
